createdAt,value
2023-04-30T00:01:47.402Z,97353.46
2023-04-30T00:04:15.352Z,97351.73
2023-04-30T00:06:43.283Z,97355.73
2023-04-30T00:09:11.197Z,97355.06
2023-04-30T00:11:39.062Z,97353.01
2023-04-30T00:14:07.110Z,97353.55
2023-04-30T00:16:35.125Z,97352.73
2023-04-30T00:19:03.006Z,97352.08
2023-04-30T00:21:30.971Z,97355.06
2023-04-30T00:24:00.839Z,97356.84
2023-04-30T00:26:28.836Z,97354.09
2023-04-30T00:28:57.250Z,97351.16
2023-04-30T00:31:25.467Z,97355.55
2023-04-30T00:33:53.358Z,97354.55
2023-04-30T00:36:23.609Z,97357.52
2023-04-30T00:38:51.458Z,97359.42
2023-04-30T00:41:21.265Z,97359.77
2023-04-30T00:43:49.185Z,97361.30
2023-04-30T00:46:17.404Z,97355.73
2023-04-30T00:48:45.715Z,97352.98
2023-04-30T00:51:13.626Z,97348.27
2023-04-30T00:53:41.807Z,97346.20
2023-04-30T00:56:11.086Z,97343.77
2023-04-30T00:58:40.536Z,97341.88
2023-04-30T01:01:09.031Z,97342.42
2023-04-30T01:03:37.068Z,97340.73
2023-04-30T01:06:05.092Z,97341.65
2023-04-30T01:08:34.037Z,97338.56
2023-04-30T01:11:17.677Z,97336.70
2023-04-30T01:14:00.225Z,97335.38
2023-04-30T01:16:33.660Z,97340.96
2023-04-30T01:19:26.061Z,97342.56
2023-04-30T01:21:55.892Z,97343.81
2023-04-30T01:24:39.086Z,97348.52
2023-04-30T01:27:25.678Z,97343.08
2023-04-30T01:29:56.309Z,97339.25
2023-04-30T01:32:25.661Z,97335.43
2023-04-30T01:34:53.712Z,97334.02
2023-04-30T01:37:31.781Z,97328.80
2023-04-30T01:40:06.777Z,97326.89
2023-04-30T01:43:05.656Z,97322.58
2023-04-30T01:45:42.594Z,97318.09
2023-04-30T01:48:22.767Z,97318.84
2023-04-30T01:51:02.444Z,97323.55
2023-04-30T01:53:42.841Z,97323.23
2023-04-30T01:56:18.643Z,97324.48
2023-04-30T01:58:49.049Z,97319.84
2023-04-30T02:01:31.760Z,97317.96
2023-04-30T02:04:00.768Z,97321.45
2023-04-30T02:06:30.475Z,97327.17
2023-04-30T02:09:04.341Z,97323.37
2023-04-30T02:11:32.451Z,97324.05
2023-04-30T02:14:00.442Z,97323.02
2023-04-30T02:16:28.481Z,97321.11
2023-04-30T02:18:56.498Z,97316.61
2023-04-30T02:21:24.487Z,97316.77
2023-04-30T02:23:52.373Z,97315.71
2023-04-30T02:26:21.728Z,97316.94
2023-04-30T02:28:49.598Z,97311.75
2023-04-30T02:31:17.649Z,97314.38
2023-04-30T02:33:46.954Z,97311.80
2023-04-30T02:36:14.975Z,97310.25
2023-04-30T02:38:42.901Z,97312.36
2023-04-30T02:41:10.904Z,97312.73
2023-04-30T02:43:38.873Z,97315.73
2023-04-30T02:46:06.894Z,97319.91
2023-04-30T02:48:34.933Z,97319.75
2023-04-30T02:51:04.209Z,97320.11
2023-04-30T02:53:32.176Z,97319.23
2023-04-30T02:56:00.534Z,97318.04
2023-04-30T02:58:28.543Z,97318.57
2023-04-30T03:00:57.528Z,97322.22
2023-04-30T03:03:25.687Z,97321.34
2023-04-30T03:05:56.816Z,97323.60
2023-04-30T03:08:25.735Z,97327.76
2023-04-30T03:10:53.908Z,97328.47
2023-04-30T03:13:22.077Z,97332.14
2023-04-30T03:15:50.151Z,97333.52
2023-04-30T03:18:18.246Z,97332.00
2023-04-30T03:20:46.498Z,97334.11
2023-04-30T03:23:14.699Z,97336.04
2023-04-30T03:25:42.693Z,97338.98
2023-04-30T03:28:10.611Z,97341.94
2023-04-30T03:30:38.571Z,97342.62
2023-04-30T03:33:06.978Z,97343.81
2023-04-30T03:35:35.166Z,97342.23
2023-04-30T03:38:03.353Z,97339.91
2023-04-30T03:40:31.736Z,97339.67
2023-04-30T03:42:59.805Z,97342.20
2023-04-30T03:45:27.809Z,97338.48
2023-04-30T03:47:55.936Z,97339.30
2023-04-30T03:50:24.055Z,97345.48
2023-04-30T03:52:52.343Z,97347.11
2023-04-30T03:55:20.397Z,97352.02
2023-04-30T03:57:48.443Z,97348.94
2023-04-30T04:00:17.080Z,97351.73
2023-04-30T04:02:48.117Z,97354.53
2023-04-30T04:05:16.446Z,97354.34
2023-04-30T04:07:45.695Z,97354.17
2023-04-30T04:10:14.050Z,97355.75
2023-04-30T04:12:42.412Z,97353.31
2023-04-30T04:15:10.721Z,97352.48
2023-04-30T04:17:38.938Z,97349.53
2023-04-30T04:20:08.468Z,97350.44
2023-04-30T04:22:37.069Z,97348.39
2023-04-30T04:25:05.318Z,97350.98
2023-04-30T04:27:34.335Z,97348.34
2023-04-30T04:30:03.785Z,97347.23
2023-04-30T04:32:32.934Z,97351.31
2023-04-30T04:35:01.633Z,97350.17
2023-04-30T04:37:29.609Z,97348.88
2023-04-30T04:39:57.813Z,97350.64
2023-04-30T04:42:26.326Z,97348.70
2023-04-30T04:44:54.366Z,97350.09
2023-04-30T04:47:23.088Z,97352.64
2023-04-30T04:49:51.467Z,97352.52
2023-04-30T04:52:19.500Z,97351.92
2023-04-30T04:54:47.913Z,97355.23
2023-04-30T04:57:16.103Z,97353.98
2023-04-30T04:59:44.001Z,97353.94
2023-04-30T05:02:12.074Z,97357.77
2023-04-30T05:04:40.222Z,97357.59
2023-04-30T05:07:08.289Z,97357.94
2023-04-30T05:09:36.266Z,97355.88
2023-04-30T05:12:04.705Z,97354.52
2023-04-30T05:14:32.731Z,97350.78
2023-04-30T05:17:00.813Z,97350.70
2023-04-30T05:19:28.943Z,97353.69
2023-04-30T05:21:57.118Z,97352.13
2023-04-30T05:24:25.094Z,97349.02
2023-04-30T05:26:53.157Z,97349.30
2023-04-30T05:29:20.999Z,97344.41
2023-04-30T05:31:49.203Z,97342.36
2023-04-30T05:34:17.473Z,97338.34
2023-04-30T05:36:45.904Z,97333.80
2023-04-30T05:39:14.475Z,97334.11
2023-04-30T05:41:42.840Z,97333.56
2023-04-30T05:44:10.964Z,97333.12
2023-04-30T05:46:39.037Z,97333.20
2023-04-30T05:49:07.038Z,97329.65
2023-04-30T05:51:35.094Z,97330.29
2023-04-30T05:54:03.347Z,97331.02
2023-04-30T05:56:31.380Z,97330.81
2023-04-30T05:58:59.311Z,97332.06
2023-04-30T06:01:28.912Z,97332.52
2023-04-30T06:03:56.972Z,97331.02
2023-04-30T06:06:25.164Z,97333.61
2023-04-30T06:08:53.215Z,97335.96
2023-04-30T06:11:21.614Z,97335.85
2023-04-30T06:13:49.594Z,97331.52
2023-04-30T06:16:17.942Z,97332.61
2023-04-30T06:18:46.264Z,97332.13
2023-04-30T06:21:14.381Z,97335.66
2023-04-30T06:23:42.283Z,97332.18
2023-04-30T06:26:10.396Z,97331.30
2023-04-30T06:28:38.270Z,97333.13
2023-04-30T06:31:06.356Z,97329.60
2023-04-30T06:33:34.351Z,97328.67
2023-04-30T06:36:02.666Z,97328.64
2023-04-30T06:38:30.623Z,97325.11
2023-04-30T06:40:58.637Z,97328.52
2023-04-30T06:43:26.622Z,97323.62
2023-04-30T06:45:54.704Z,97325.63
2023-04-30T06:48:23.277Z,97322.40
2023-04-30T06:50:51.455Z,97320.88
2023-04-30T06:53:19.725Z,97316.59
2023-04-30T06:55:48.949Z,97311.96
2023-04-30T06:58:17.517Z,97311.60
2023-04-30T07:00:45.559Z,97316.56
2023-04-30T07:03:14.211Z,97321.50
2023-04-30T07:05:42.520Z,97328.23
2023-04-30T07:08:10.617Z,97326.44
2023-04-30T07:10:38.763Z,97326.69
2023-04-30T07:13:08.496Z,97329.09
2023-04-30T07:15:37.332Z,97328.92
2023-04-30T07:18:05.471Z,97327.42
2023-04-30T07:20:33.710Z,97330.52
2023-04-30T07:23:01.958Z,97329.50
2023-04-30T07:25:29.885Z,97329.08
2023-04-30T07:27:57.871Z,97328.95
2023-04-30T07:30:26.468Z,97327.25
2023-04-30T07:32:54.587Z,97332.37
2023-04-30T07:35:22.622Z,97332.34
2023-04-30T07:37:50.712Z,97327.41
2023-04-30T07:40:34.524Z,97326.80
2023-04-30T07:43:05.198Z,97327.23
2023-04-30T07:45:35.001Z,97327.15
2023-04-30T07:48:03.101Z,97331.41
2023-04-30T07:50:34.300Z,97333.22
2023-04-30T07:53:03.106Z,97328.54
2023-04-30T07:55:31.366Z,97335.45
2023-04-30T07:57:59.757Z,97337.94
2023-04-30T08:00:29.588Z,97340.13
2023-04-30T08:02:59.260Z,97340.23
2023-04-30T08:05:27.545Z,97338.37
2023-04-30T08:07:55.521Z,97333.62
2023-04-30T08:10:23.541Z,97332.48
2023-04-30T08:12:51.477Z,97333.86
2023-04-30T08:15:22.001Z,97340.44
2023-04-30T08:17:50.772Z,97334.94
2023-04-30T08:20:19.243Z,97333.56
2023-04-30T08:22:47.395Z,97332.08
2023-04-30T08:25:15.509Z,97330.30
2023-04-30T08:27:43.532Z,97331.13
2023-04-30T08:30:11.777Z,97335.92
2023-04-30T08:32:40.267Z,97342.13
2023-04-30T08:35:09.445Z,97334.00
2023-04-30T08:37:37.308Z,97338.52
2023-04-30T08:40:09.675Z,97339.09
2023-04-30T08:42:44.839Z,97333.02
2023-04-30T08:45:14.607Z,97335.31
2023-04-30T08:47:43.477Z,97333.41
2023-04-30T08:50:12.160Z,97326.17
2023-04-30T08:52:41.396Z,97326.61
2023-04-30T08:55:11.273Z,97314.75
2023-04-30T08:57:39.404Z,97323.85
2023-04-30T09:00:08.534Z,97329.26
2023-04-30T09:02:41.638Z,97334.12
2023-04-30T09:05:14.355Z,97327.03
2023-04-30T09:08:01.090Z,97333.86
2023-04-30T09:10:35.325Z,97321.39
2023-04-30T09:13:07.240Z,97321.01
2023-04-30T09:15:37.307Z,97324.65
2023-04-30T09:18:20.083Z,97312.32
2023-04-30T09:21:00.842Z,97309.98
2023-04-30T09:23:30.113Z,97310.70
2023-04-30T09:25:58.189Z,97307.09
2023-04-30T09:28:28.888Z,97308.35
2023-04-30T09:30:57.804Z,97308.44
2023-04-30T09:33:26.005Z,97306.70
2023-04-30T09:35:54.053Z,97306.23
2023-04-30T09:38:27.292Z,97301.77
2023-04-30T09:40:56.042Z,97303.59
2023-04-30T09:43:24.076Z,97310.89
2023-04-30T09:45:53.065Z,97308.13
2023-04-30T09:48:22.827Z,97303.50
2023-04-30T09:50:52.128Z,97299.02
2023-04-30T09:53:20.627Z,97297.77
2023-04-30T09:55:51.147Z,97303.32
2023-04-30T09:58:22.390Z,97291.61
2023-04-30T10:00:53.001Z,97296.63
2023-04-30T10:03:24.090Z,97295.85
2023-04-30T10:05:53.364Z,97292.56
2023-04-30T10:08:27.507Z,97288.41
2023-04-30T10:11:09.215Z,97290.23
2023-04-30T10:14:02.881Z,97286.40
2023-04-30T10:16:54.975Z,97290.63
2023-04-30T10:19:32.484Z,97291.11
2023-04-30T10:22:01.829Z,97285.45
2023-04-30T10:24:30.567Z,97287.93
2023-04-30T10:26:58.746Z,97284.94
2023-04-30T10:29:26.750Z,97285.52
2023-04-30T10:31:55.541Z,97286.48
2023-04-30T10:34:29.632Z,97280.34
2023-04-30T10:37:01.683Z,97278.35
2023-04-30T10:39:30.219Z,97270.82
2023-04-30T10:42:03.676Z,97275.98
2023-04-30T10:44:37.525Z,97279.75
2023-04-30T10:47:07.306Z,97278.63
2023-04-30T10:49:35.703Z,97276.60
2023-04-30T10:52:05.382Z,97273.92
2023-04-30T10:54:35.954Z,97266.48
2023-04-30T10:57:14.812Z,97270.52
2023-04-30T10:59:53.819Z,97267.34
2023-04-30T11:02:22.077Z,97266.55
2023-04-30T11:05:09.116Z,97268.52
2023-04-30T11:07:37.948Z,97267.85
2023-04-30T11:10:08.824Z,97271.45
2023-04-30T11:12:42.267Z,97270.44
2023-04-30T11:15:16.518Z,97263.03
2023-04-30T11:17:46.243Z,97262.30
2023-04-30T11:20:18.915Z,97256.80
2023-04-30T11:22:46.968Z,97253.63
2023-04-30T11:25:22.643Z,97247.17
2023-04-30T11:27:51.082Z,97254.83
2023-04-30T11:30:19.660Z,97265.31
2023-04-30T11:32:49.541Z,97258.34
2023-04-30T11:35:19.950Z,97257.44
2023-04-30T11:37:49.025Z,97252.60
2023-04-30T11:40:17.006Z,97251.42
2023-04-30T11:42:46.715Z,97248.74
2023-04-30T11:45:23.569Z,97252.66
2023-04-30T11:47:54.748Z,97253.99
2023-04-30T11:50:33.113Z,97246.44
2023-04-30T11:53:05.620Z,97242.73
2023-04-30T11:55:34.853Z,97239.66
2023-04-30T11:58:03.950Z,97232.83
2023-04-30T12:00:32.092Z,97237.75
2023-04-30T12:03:04.113Z,97237.29
2023-04-30T12:05:32.176Z,97234.29
2023-04-30T12:08:04.532Z,97233.38
2023-04-30T12:10:33.215Z,97233.45
2023-04-30T12:13:01.123Z,97230.82
2023-04-30T12:15:29.834Z,97231.39
2023-04-30T12:17:59.740Z,97227.62
2023-04-30T12:20:31.442Z,97230.30
2023-04-30T12:22:59.577Z,97231.98
2023-04-30T12:25:29.531Z,97230.79
2023-04-30T12:27:59.871Z,97227.80
2023-04-30T12:30:28.281Z,97228.10
2023-04-30T12:33:01.315Z,97224.60
2023-04-30T12:35:34.229Z,97215.79
2023-04-30T12:38:08.415Z,97224.64
2023-04-30T12:40:37.268Z,97216.27
2023-04-30T12:43:08.134Z,97220.69
2023-04-30T12:45:44.183Z,97218.44
2023-04-30T12:48:13.709Z,97216.58
2023-04-30T12:50:42.520Z,97217.55
2023-04-30T12:53:10.686Z,97203.17
2023-04-30T12:55:39.493Z,97203.41
2023-04-30T12:58:10.556Z,97202.75
2023-04-30T13:00:52.336Z,97201.98
2023-04-30T13:03:21.975Z,97205.35
2023-04-30T13:05:54.178Z,97203.59
2023-04-30T13:08:22.183Z,97201.46
2023-04-30T13:10:50.156Z,97204.19
2023-04-30T13:13:18.767Z,97200.41
2023-04-30T13:15:48.347Z,97199.65
2023-04-30T13:18:16.740Z,97197.21
2023-04-30T13:20:44.947Z,97188.02
2023-04-30T13:23:13.056Z,97192.17
2023-04-30T13:25:42.202Z,97194.98
2023-04-30T13:28:10.374Z,97194.97
2023-04-30T13:30:38.689Z,97198.11
2023-04-30T13:33:06.687Z,97189.85
2023-04-30T13:35:34.650Z,97196.77
2023-04-30T13:38:02.751Z,97199.03
2023-04-30T13:40:30.708Z,97202.09
2023-04-30T13:42:58.629Z,97193.37
2023-04-30T13:45:26.643Z,97190.48
2023-04-30T13:47:54.857Z,97186.98
2023-04-30T13:50:22.871Z,97187.66
2023-04-30T13:52:50.846Z,97185.73
2023-04-30T13:55:19.016Z,97192.09
2023-04-30T13:57:47.226Z,97188.99
2023-04-30T14:00:16.327Z,97188.50
2023-04-30T14:02:44.655Z,97181.83
2023-04-30T14:05:12.727Z,97186.17
2023-04-30T14:07:40.745Z,97181.02
2023-04-30T14:10:09.189Z,97191.88
2023-04-30T14:12:38.511Z,97187.53
2023-04-30T14:15:08.413Z,97186.50
2023-04-30T14:17:36.379Z,97188.79
2023-04-30T14:20:05.137Z,97192.64
2023-04-30T14:22:35.911Z,97188.30
2023-04-30T14:25:05.419Z,97192.05
2023-04-30T14:27:33.658Z,97190.48
2023-04-30T14:30:01.996Z,97190.33
2023-04-30T14:32:30.179Z,97187.50
2023-04-30T14:34:58.302Z,97199.08
2023-04-30T14:37:27.171Z,97190.96
2023-04-30T14:39:55.648Z,97190.59
2023-04-30T14:42:23.924Z,97188.67
2023-04-30T14:44:53.281Z,97182.86
2023-04-30T14:47:21.755Z,97196.69
2023-04-30T14:49:52.338Z,97189.88
2023-04-30T14:52:20.390Z,97188.42
2023-04-30T14:54:48.373Z,97192.45
2023-04-30T14:57:18.956Z,97194.14
2023-04-30T14:59:47.176Z,97189.21
2023-04-30T15:02:15.216Z,97195.58
2023-04-30T15:04:46.350Z,97193.47
2023-04-30T15:07:14.696Z,97193.16
2023-04-30T15:09:44.873Z,97193.32
2023-04-30T15:12:13.162Z,97203.81
2023-04-30T15:14:41.705Z,97202.46
2023-04-30T15:17:11.364Z,97207.20
2023-04-30T15:19:39.481Z,97202.93
2023-04-30T15:22:07.993Z,97203.77
2023-04-30T15:24:36.407Z,97207.74
2023-04-30T15:27:04.600Z,97207.75
2023-04-30T15:29:32.547Z,97207.64
2023-04-30T15:32:00.649Z,97211.02
2023-04-30T15:34:29.615Z,97213.20
2023-04-30T15:36:59.215Z,97221.14
2023-04-30T15:39:27.143Z,97222.39
2023-04-30T15:41:55.564Z,97231.75
2023-04-30T15:44:23.544Z,97225.67
2023-04-30T15:46:52.334Z,97228.83
2023-04-30T15:49:21.312Z,97228.67
2023-04-30T15:51:51.957Z,97230.77
2023-04-30T15:54:20.116Z,97233.86
2023-04-30T15:56:48.022Z,97238.18
2023-04-30T15:59:17.756Z,97238.02
2023-04-30T16:01:47.198Z,97235.74
2023-04-30T16:04:15.194Z,97238.34
2023-04-30T16:06:43.331Z,97243.35
2023-04-30T16:09:12.637Z,97241.26
2023-04-30T16:11:40.821Z,97243.69
2023-04-30T16:14:08.876Z,97249.54
2023-04-30T16:16:36.987Z,97245.80
2023-04-30T16:19:07.652Z,97249.71
2023-04-30T16:21:38.679Z,97250.43
2023-04-30T16:24:07.384Z,97254.72
2023-04-30T16:26:36.346Z,97258.02
2023-04-30T16:29:05.042Z,97261.98
2023-04-30T16:31:33.690Z,97263.76
2023-04-30T16:34:01.582Z,97265.19
2023-04-30T16:36:29.553Z,97260.81
2023-04-30T16:38:57.651Z,97264.94
2023-04-30T16:41:25.821Z,97268.38
2023-04-30T16:43:53.708Z,97270.38
2023-04-30T16:46:21.769Z,97270.55
2023-04-30T16:48:49.834Z,97271.52
2023-04-30T16:51:17.829Z,97270.35
2023-04-30T16:53:45.757Z,97273.27
2023-04-30T16:56:13.661Z,97272.17
2023-04-30T16:58:41.816Z,97276.59
2023-04-30T17:01:09.854Z,97273.52
2023-04-30T17:03:38.153Z,97272.28
2023-04-30T17:06:07.034Z,97278.09
2023-04-30T17:08:35.064Z,97280.39
2023-04-30T17:11:03.032Z,97284.34
2023-04-30T17:13:32.366Z,97282.89
2023-04-30T17:16:02.244Z,97283.09
2023-04-30T17:18:30.521Z,97289.71
2023-04-30T17:20:58.624Z,97288.83
2023-04-30T17:23:26.670Z,97294.32
2023-04-30T17:25:54.725Z,97298.64
2023-04-30T17:28:23.182Z,97302.09
2023-04-30T17:30:51.383Z,97306.45
2023-04-30T17:33:19.655Z,97311.70
2023-04-30T17:35:47.804Z,97312.33
2023-04-30T17:38:16.125Z,97310.66
2023-04-30T17:40:44.632Z,97316.84
2023-04-30T17:43:12.567Z,97321.09
2023-04-30T17:45:40.888Z,97323.43
2023-04-30T17:48:09.203Z,97323.88
2023-04-30T17:50:37.261Z,97325.51
2023-04-30T17:53:05.261Z,97328.42
2023-04-30T17:55:33.622Z,97332.84
2023-04-30T17:58:01.850Z,97337.02
2023-04-30T18:00:31.002Z,97338.17
2023-04-30T18:02:59.178Z,97344.97
2023-04-30T18:05:27.440Z,97351.13
2023-04-30T18:07:55.543Z,97356.41
2023-04-30T18:10:23.519Z,97358.80
2023-04-30T18:12:52.664Z,97362.65
2023-04-30T18:15:20.739Z,97365.70
2023-04-30T18:17:48.764Z,97366.95
2023-04-30T18:20:16.942Z,97371.71
2023-04-30T18:22:44.966Z,97372.84
2023-04-30T18:25:13.829Z,97374.67
2023-04-30T18:27:41.989Z,97381.41
2023-04-30T18:30:14.238Z,97383.44
2023-04-30T18:32:44.350Z,97387.52
2023-04-30T18:35:12.426Z,97385.98
2023-04-30T18:37:40.628Z,97394.08
2023-04-30T18:40:09.550Z,97399.99
2023-04-30T18:42:38.785Z,97405.54
2023-04-30T18:45:09.165Z,97407.44
2023-04-30T18:47:37.180Z,97409.25
2023-04-30T18:50:07.303Z,97414.34
2023-04-30T18:52:35.258Z,97422.72
2023-04-30T18:55:03.443Z,97425.79
2023-04-30T18:57:31.536Z,97426.21
2023-04-30T18:59:59.613Z,97427.41
2023-04-30T19:02:27.602Z,97436.55
2023-04-30T19:04:55.913Z,97441.15
2023-04-30T19:07:23.885Z,97446.28
2023-04-30T19:09:53.573Z,97444.58
2023-04-30T19:12:21.992Z,97446.41
2023-04-30T19:14:50.401Z,97451.98
2023-04-30T19:17:21.494Z,97456.52
2023-04-30T19:19:50.340Z,97457.38
2023-04-30T19:22:18.336Z,97458.80
2023-04-30T19:24:46.355Z,97456.41
2023-04-30T19:27:14.320Z,97454.74
2023-04-30T19:29:42.393Z,97455.93
2023-04-30T19:32:10.549Z,97457.27
2023-04-30T19:34:38.668Z,97454.94
2023-04-30T19:37:07.269Z,97459.48
2023-04-30T19:39:36.624Z,97457.48
2023-04-30T19:42:05.210Z,97459.02
2023-04-30T19:44:33.490Z,97468.31
2023-04-30T19:47:01.554Z,97468.56
2023-04-30T19:49:29.631Z,97472.38
2023-04-30T19:51:58.391Z,97477.58
2023-04-30T19:54:26.362Z,97481.86
2023-04-30T19:56:54.696Z,97484.60
2023-04-30T19:59:22.666Z,97490.84
2023-04-30T20:01:52.737Z,97490.20
2023-04-30T20:04:21.126Z,97490.10
2023-04-30T20:06:56.155Z,97491.92
2023-04-30T20:09:25.241Z,97496.50
2023-04-30T20:11:54.449Z,97498.29
2023-04-30T20:14:24.052Z,97501.45
2023-04-30T20:16:55.229Z,97501.66
2023-04-30T20:19:23.372Z,97501.34
2023-04-30T20:21:52.181Z,97503.89
2023-04-30T20:24:21.869Z,97504.65
2023-04-30T20:26:49.971Z,97509.07
2023-04-30T20:29:20.616Z,97515.08
2023-04-30T20:31:48.672Z,97516.54
2023-04-30T20:34:17.027Z,97521.92
2023-04-30T20:36:45.116Z,97522.17
2023-04-30T20:39:14.755Z,97531.78
2023-04-30T20:41:43.831Z,97534.08
2023-04-30T20:44:11.809Z,97536.41
2023-04-30T20:46:39.787Z,97536.15
2023-04-30T20:49:11.068Z,97536.33
2023-04-30T20:51:39.519Z,97540.02
2023-04-30T20:54:09.489Z,97539.52
2023-04-30T20:56:37.488Z,97543.33
2023-04-30T20:59:05.965Z,97541.94
2023-04-30T21:01:34.113Z,97542.48
2023-04-30T21:04:02.517Z,97545.34
2023-04-30T21:06:32.243Z,97544.15
2023-04-30T21:09:00.826Z,97542.66
2023-04-30T21:11:29.085Z,97544.02
2023-04-30T21:13:57.532Z,97547.86
2023-04-30T21:16:28.122Z,97550.34
2023-04-30T21:18:56.710Z,97551.02
2023-04-30T21:21:24.646Z,97554.65
2023-04-30T21:23:52.673Z,97556.35
2023-04-30T21:26:21.826Z,97554.21
2023-04-30T21:28:52.721Z,97558.71
2023-04-30T21:31:20.770Z,97564.42
2023-04-30T21:33:48.899Z,97568.35
2023-04-30T21:36:17.822Z,97570.21
2023-04-30T21:38:46.160Z,97571.02
2023-04-30T21:41:15.421Z,97570.98
2023-04-30T21:43:43.763Z,97573.92
2023-04-30T21:46:13.550Z,97577.23
2023-04-30T21:48:41.701Z,97582.11
2023-04-30T21:51:15.126Z,97581.58
2023-04-30T21:53:44.412Z,97582.63
2023-04-30T21:56:12.901Z,97582.92
2023-04-30T21:58:41.131Z,97586.35
2023-04-30T22:01:09.343Z,97587.31
2023-04-30T22:03:37.767Z,97591.23
2023-04-30T22:06:06.024Z,97594.80
2023-04-30T22:08:34.557Z,97600.31
2023-04-30T22:11:04.630Z,97599.00
2023-04-30T22:13:32.477Z,97603.12
2023-04-30T22:16:01.374Z,97603.92
2023-04-30T22:18:29.456Z,97603.86
2023-04-30T22:20:57.550Z,97601.39
2023-04-30T22:23:25.772Z,97600.11
2023-04-30T22:25:53.671Z,97602.50
2023-04-30T22:28:23.549Z,97605.79
2023-04-30T22:30:58.996Z,97610.14
2023-04-30T22:33:27.471Z,97612.86
2023-04-30T22:35:56.203Z,97612.75
2023-04-30T22:38:24.091Z,97615.60
2023-04-30T22:40:52.104Z,97619.36
2023-04-30T22:43:19.978Z,97620.82
2023-04-30T22:45:47.940Z,97619.86
2023-04-30T22:48:16.506Z,97624.05
2023-04-30T22:50:45.002Z,97622.52
2023-04-30T22:53:13.526Z,97623.95
2023-04-30T22:55:41.518Z,97626.64
2023-04-30T22:58:09.361Z,97627.02
2023-04-30T23:00:37.535Z,97633.88
2023-04-30T23:03:05.637Z,97635.02
2023-04-30T23:05:33.655Z,97637.55
2023-04-30T23:08:01.556Z,97640.77
2023-04-30T23:10:29.629Z,97642.18
2023-04-30T23:12:58.830Z,97640.43
2023-04-30T23:15:27.069Z,97637.13
2023-04-30T23:17:55.922Z,97636.58
2023-04-30T23:20:23.882Z,97634.27
2023-04-30T23:22:51.909Z,97631.04
2023-04-30T23:25:20.287Z,97632.89
2023-04-30T23:27:48.400Z,97629.33
2023-04-30T23:30:16.921Z,97626.82
2023-04-30T23:32:44.770Z,97631.34
2023-04-30T23:35:12.875Z,97629.61
2023-04-30T23:37:41.171Z,97628.89
2023-04-30T23:40:09.883Z,97625.55
2023-04-30T23:42:37.841Z,97623.25
2023-04-30T23:45:06.467Z,97620.44
2023-04-30T23:47:36.964Z,97623.20
2023-04-30T23:50:05.628Z,97627.38
2023-04-30T23:52:34.839Z,97636.16
2023-04-30T23:55:03.801Z,97645.98
2023-04-30T23:57:31.764Z,97646.13
